Time;durP1;ratioP1;P1;durP2;ratioP2;P2;SDS_P1;SDS_P2;PMS_P1;PMS_P2;Temp;Humidity;BMP_temperature;BMP_pressure;BME280_temperature;BME280_humidity;BME280_pressure;Samples;Min_cycle;Max_cycle;Signal;HPM_P1;HPM_P2
2022/06/30 00:01:32;;;;;;;4.35;2.80;;;22.10;99.90;;;;;;5096775;28;20244;-77
2022/06/30 00:03:59;;;;;;;5.07;3.03;;;22.10;99.90;;;;;;5098261;28;20229;-77
2022/06/30 00:06:28;;;;;;;2.88;2.67;;;22.10;99.90;;;;;;5097138;28;20224;-77
2022/06/30 00:08:55;;;;;;;4.28;3.53;;;22.10;99.90;;;;;;5093939;28;20222;-76
2022/06/30 00:11:22;;;;;;;3.15;2.72;;;22.10;99.90;;;;;;5105310;28;20547;-76
2022/06/30 00:13:50;;;;;;;3.53;3.22;;;22.00;99.90;;;;;;5094369;28;20205;-76
2022/06/30 00:16:18;;;;;;;2.75;2.50;;;22.10;99.90;;;;;;5096852;28;20676;-77
2022/06/30 00:18:45;;;;;;;4.97;3.17;;;22.00;99.90;;;;;;5116307;28;20737;-77
2022/06/30 00:21:12;;;;;;;3.42;3.13;;;22.00;99.90;;;;;;5116292;28;20221;-76
2022/06/30 00:23:41;;;;;;;3.33;3.03;;;22.00;99.90;;;;;;5101486;28;20229;-76
2022/06/30 00:26:09;;;;;;;5.07;3.08;;;22.00;99.90;;;;;;5097514;28;20284;-76
2022/06/30 00:28:36;;;;;;;3.70;3.40;;;22.00;99.90;;;;;;5094026;28;20297;-78
2022/06/30 00:31:03;;;;;;;4.10;3.42;;;22.00;99.90;;;;;;5097364;28;20190;-77
2022/06/30 00:33:30;;;;;;;4.05;3.33;;;21.90;99.90;;;;;;5097168;28;20248;-76
2022/06/30 00:35:57;;;;;;;3.03;2.72;;;21.90;99.90;;;;;;5097555;28;20330;-76
2022/06/30 00:38:24;;;;;;;2.90;2.67;;;21.90;99.90;;;;;;5090882;28;20198;-78
2022/06/30 00:40:53;;;;;;;3.42;3.13;;;21.90;99.90;;;;;;5098824;28;20242;-76
2022/06/30 00:43:20;;;;;;;3.50;3.20;;;21.90;99.90;;;;;;5085188;28;20217;-77
2022/06/30 00:45:48;;;;;;;3.88;2.80;;;21.90;99.90;;;;;;5077109;28;20198;-76
2022/06/30 00:48:17;;;;;;;3.22;2.92;;;21.90;99.90;;;;;;5080079;28;20201;-77
2022/06/30 00:50:44;;;;;;;4.63;3.13;;;21.90;99.90;;;;;;5095334;28;20221;-77
2022/06/30 00:53:12;;;;;;;3.15;2.90;;;21.80;99.90;;;;;;5111152;28;20232;-76
2022/06/30 00:55:40;;;;;;;3.47;2.75;;;21.80;99.90;;;;;;5076101;28;20222;-76
2022/06/30 00:58:10;;;;;;;3.53;3.22;;;21.70;99.90;;;;;;5096998;28;20204;-76
2022/06/30 01:00:40;;;;;;;3.60;3.10;;;21.70;99.90;;;;;;5097139;28;20233;-76
2022/06/30 01:03:08;;;;;;;2.90;2.70;;;21.70;99.90;;;;;;5096911;28;20738;-76
2022/06/30 01:05:36;;;;;;;3.00;2.80;;;21.70;99.90;;;;;;5095709;28;20217;-77
2022/06/30 01:08:05;;;;;;;3.70;2.90;;;21.70;99.90;;;;;;5097190;28;20194;-76
2022/06/30 01:13:19;;;;;;;3.97;2.85;;;21.60;99.90;;;;;;5097131;28;20220;-76
2022/06/30 01:15:46;;;;;;;3.25;2.80;;;21.60;99.90;;;;;;5096157;28;20220;-77
2022/06/30 01:18:13;;;;;;;4.82;3.10;;;21.60;99.90;;;;;;5097252;28;20200;-76
2022/06/30 01:20:40;;;;;;;2.85;2.65;;;21.60;99.90;;;;;;5097042;28;20229;-77
2022/06/30 01:23:09;;;;;;;2.80;2.60;;;21.60;99.90;;;;;;5085168;28;20595;-76
2022/06/30 01:25:36;;;;;;;2.67;2.47;;;21.60;99.90;;;;;;5116058;28;20308;-77
2022/06/30 01:28:04;;;;;;;3.13;2.75;;;21.60;99.90;;;;;;5084101;22;20605;-76
2022/06/30 01:30:31;;;;;;;3.17;2.50;;;21.50;99.90;;;;;;5002804;28;20232;-76
2022/06/30 01:32:58;;;;;;;2.75;2.55;;;21.50;99.90;;;;;;5000849;28;20636;-77
2022/06/30 01:35:26;;;;;;;2.47;2.25;;;21.60;99.90;;;;;;5001115;28;20313;-76
2022/06/30 01:37:56;;;;;;;4.15;2.78;;;21.50;99.90;;;;;;5002758;28;20235;-76
2022/06/30 01:40:25;;;;;;;6.03;3.10;;;21.50;99.90;;;;;;4997867;28;20228;-75
2022/06/30 01:42:53;;;;;;;3.20;2.90;;;21.50;99.90;;;;;;5001800;28;20224;-75
2022/06/30 01:45:20;;;;;;;3.30;2.83;;;21.30;99.90;;;;;;5007313;28;20216;-76
2022/06/30 01:47:48;;;;;;;2.80;2.60;;;21.30;99.90;;;;;;5005681;28;20216;-76
2022/06/30 01:50:17;;;;;;;3.17;2.92;;;21.30;99.90;;;;;;4999857;28;20220;-74
2022/06/30 01:52:44;;;;;;;3.08;2.50;;;21.30;99.90;;;;;;5003570;28;20198;-75
2022/06/30 01:55:12;;;;;;;2.88;2.60;;;21.30;99.90;;;;;;4999882;28;20219;-76
2022/06/30 01:57:41;;;;;;;2.72;2.45;;;21.30;99.90;;;;;;5000579;28;20216;-76
2022/06/30 02:00:11;;;;;;;2.78;2.40;;;21.30;99.90;;;;;;5002295;28;20220;-75
2022/06/30 02:02:39;;;;;;;4.40;2.63;;;21.30;99.90;;;;;;4994965;28;20311;-75
2022/06/30 02:05:07;;;;;;;2.70;2.50;;;21.30;99.90;;;;;;5002460;28;20594;-78
2022/06/30 02:07:36;;;;;;;3.92;2.55;;;21.30;99.90;;;;;;4999211;28;20227;-77
2022/06/30 02:10:03;;;;;;;2.78;2.58;;;21.30;99.90;;;;;;4999299;28;20255;-78
2022/06/30 02:12:46;;;;;;;2.60;2.40;;;21.30;99.90;;;;;;5000441;28;20263;-76
2022/06/30 02:15:16;;;;;;;2.72;2.50;;;21.20;99.90;;;;;;4998989;28;20583;-77
2022/06/30 02:17:44;;;;;;;4.32;2.95;;;21.20;99.90;;;;;;5000707;28;20570;-75
2022/06/30 02:20:12;;;;;;;2.72;2.53;;;21.20;99.90;;;;;;4998369;28;20212;-76
2022/06/30 02:22:41;;;;;;;2.75;2.55;;;21.20;99.90;;;;;;4999536;28;20227;-75
2022/06/30 02:25:10;;;;;;;3.00;2.65;;;21.20;99.90;;;;;;5001662;28;20232;-75
2022/06/30 02:27:37;;;;;;;3.20;2.83;;;21.10;99.90;;;;;;5000659;28;20224;-75
2022/06/30 02:30:06;;;;;;;2.97;2.78;;;21.10;99.90;;;;;;5000165;28;20243;-75
2022/06/30 02:32:35;;;;;;;3.80;2.72;;;21.10;99.90;;;;;;4998757;28;20232;-77
2022/06/30 02:35:02;;;;;;;2.75;2.53;;;21.10;99.90;;;;;;5001380;28;20252;-75
2022/06/30 02:37:29;;;;;;;3.13;2.83;;;21.10;99.90;;;;;;5007413;28;20711;-76
2022/06/30 02:39:56;;;;;;;3.38;2.65;;;21.10;99.90;;;;;;5000394;28;20231;-76
2022/06/30 02:42:23;;;;;;;2.97;2.67;;;21.10;99.90;;;;;;5001631;28;20564;-76
2022/06/30 02:44:50;;;;;;;2.92;2.72;;;21.00;99.90;;;;;;4998399;28;20212;-75
2022/06/30 02:47:17;;;;;;;2.80;2.55;;;21.00;99.90;;;;;;4999264;28;22198;-76
2022/06/30 02:49:46;;;;;;;3.22;2.92;;;20.90;99.90;;;;;;4998424;28;20622;-75
2022/06/30 02:52:13;;;;;;;3.13;2.92;;;20.90;99.90;;;;;;5000096;28;20200;-74
2022/06/30 02:54:40;;;;;;;2.92;2.67;;;20.90;99.90;;;;;;5003406;28;20231;-75
2022/06/30 02:57:07;;;;;;;3.75;2.97;;;20.90;99.90;;;;;;5001054;28;20282;-76
2022/06/30 02:59:34;;;;;;;3.45;2.80;;;20.90;99.90;;;;;;5001181;28;20821;-75
2022/06/30 03:02:01;;;;;;;2.85;2.60;;;20.90;99.90;;;;;;5004373;28;20231;-75
2022/06/30 03:04:28;;;;;;;2.90;2.67;;;20.90;99.90;;;;;;5003025;28;20224;-76
2022/06/30 03:06:57;;;;;;;3.92;2.88;;;20.90;99.90;;;;;;5006059;28;20770;-75
2022/06/30 03:09:24;;;;;;;4.47;2.97;;;20.90;99.90;;;;;;5002462;28;20224;-76
2022/06/30 03:11:52;;;;;;;2.80;2.60;;;20.90;99.90;;;;;;5004624;28;20228;-75
2022/06/30 03:14:19;;;;;;;2.90;2.70;;;20.90;99.90;;;;;;5000499;28;21310;-76
2022/06/30 03:16:46;;;;;;;2.78;2.58;;;20.90;99.90;;;;;;5005376;28;20209;-76
2022/06/30 03:19:13;;;;;;;3.10;2.75;;;20.90;99.90;;;;;;4999198;28;20234;-75
2022/06/30 03:21:40;;;;;;;2.92;2.58;;;20.90;99.90;;;;;;5004389;28;20694;-76
2022/06/30 03:24:09;;;;;;;5.40;2.95;;;20.90;99.90;;;;;;5003508;28;20270;-75
2022/06/30 03:26:37;;;;;;;3.35;2.88;;;20.90;99.90;;;;;;5005418;28;20209;-75
2022/06/30 03:29:04;;;;;;;3.28;2.97;;;20.90;99.90;;;;;;5007282;28;20791;-75
2022/06/30 03:31:32;;;;;;;2.80;2.55;;;20.90;99.90;;;;;;5002136;28;20196;-75
2022/06/30 03:33:59;;;;;;;3.30;2.67;;;20.90;99.90;;;;;;5000966;28;20220;-76
2022/06/30 03:36:26;;;;;;;3.15;2.85;;;20.90;99.90;;;;;;5002274;28;20204;-75
2022/06/30 03:38:53;;;;;;;2.60;2.40;;;20.80;99.90;;;;;;5000870;28;20281;-75
2022/06/30 03:41:22;;;;;;;3.10;2.75;;;20.80;99.90;;;;;;5002353;28;20203;-76
2022/06/30 03:43:49;;;;;;;2.95;2.72;;;20.80;99.90;;;;;;5001627;28;20602;-75
2022/06/30 03:46:16;;;;;;;3.28;2.78;;;20.80;99.90;;;;;;5002265;28;20250;-76
2022/06/30 03:48:44;;;;;;;2.72;2.53;;;20.70;99.90;;;;;;5001658;28;20282;-75
2022/06/30 03:51:11;;;;;;;3.17;2.85;;;20.70;99.90;;;;;;5003104;28;20219;-76
2022/06/30 03:53:39;;;;;;;4.22;2.97;;;20.60;99.90;;;;;;5000760;28;20310;-75
2022/06/30 03:56:06;;;;;;;2.78;2.58;;;20.60;99.90;;;;;;5002100;28;20227;-76
2022/06/30 03:58:35;;;;;;;2.90;2.67;;;20.60;99.90;;;;;;5001663;28;20323;-75
2022/06/30 04:01:02;;;;;;;3.72;3.40;;;20.60;99.90;;;;;;5001107;28;20193;-76
2022/06/30 04:03:30;;;;;;;2.67;2.45;;;20.60;99.90;;;;;;5002085;28;20619;-74
2022/06/30 04:05:57;;;;;;;2.58;2.38;;;20.60;99.90;;;;;;4997786;28;20204;-75
2022/06/30 04:08:24;;;;;;;3.55;2.35;;;20.60;99.90;;;;;;5001544;28;20490;-76
2022/06/30 04:10:51;;;;;;;3.25;2.95;;;20.60;99.90;;;;;;5000818;28;20679;-75
2022/06/30 04:13:18;;;;;;;2.65;2.45;;;20.60;99.90;;;;;;5002029;28;20197;-76
2022/06/30 04:15:47;;;;;;;2.75;2.50;;;20.60;99.90;;;;;;5000878;28;20286;-78
2022/06/30 04:18:14;;;;;;;3.20;2.90;;;20.60;99.90;;;;;;5001224;28;20224;-78
2022/06/30 04:20:41;;;;;;;2.72;2.53;;;20.60;99.90;;;;;;5001845;28;20232;-76
2022/06/30 04:23:08;;;;;;;4.22;2.80;;;20.70;99.90;;;;;;5003317;28;20228;-75
2022/06/30 04:25:35;;;;;;;2.88;2.67;;;20.70;99.90;;;;;;5004671;28;20223;-76
2022/06/30 04:28:03;;;;;;;2.42;2.33;;;20.70;99.90;;;;;;5009382;28;20247;-76
2022/06/30 04:33:16;;;;;;;3.35;2.83;;;20.80;99.90;;;;;;5001527;28;20679;-77
2022/06/30 04:35:43;;;;;;;3.67;2.50;;;20.90;99.90;;;;;;5003438;28;20703;-78
2022/06/30 04:38:10;;;;;;;4.50;2.97;;;21.10;99.90;;;;;;5002834;28;20599;-78
2022/06/30 04:43:22;;;;;;;3.15;2.85;;;21.60;99.90;;;;;;4999733;28;20482;-77
2022/06/30 04:45:49;;;;;;;3.08;2.85;;;21.90;99.90;;;;;;5004946;28;20196;-76
2022/06/30 04:48:17;;;;;;;2.90;2.63;;;22.10;99.90;;;;;;5005361;28;20223;-75
2022/06/30 04:50:44;;;;;;;3.35;3.03;;;22.10;99.90;;;;;;5001481;28;20228;-76
2022/06/30 04:53:12;;;;;;;2.53;2.22;;;22.10;99.90;;;;;;4999978;28;20203;-76
2022/06/30 04:55:39;;;;;;;4.65;3.20;;;22.10;99.90;;;;;;5004445;28;20223;-76
2022/06/30 04:58:06;;;;;;;2.53;2.30;;;22.10;99.90;;;;;;5003737;28;20311;-76
2022/06/30 05:00:34;;;;;;;3.42;2.72;;;22.10;99.90;;;;;;5005543;28;20246;-78
2022/06/30 05:03:01;;;;;;;3.30;3.00;;;22.00;99.90;;;;;;5002916;28;20248;-77
2022/06/30 05:05:29;;;;;;;4.30;3.00;;;21.90;99.90;;;;;;5000945;28;20228;-76
2022/06/30 05:07:56;;;;;;;3.10;2.90;;;21.90;99.90;;;;;;5006865;28;20224;-76
2022/06/30 05:10:23;;;;;;;3.28;2.97;;;21.90;99.90;;;;;;5002651;28;20306;-76
2022/06/30 05:12:50;;;;;;;3.28;2.67;;;21.90;99.90;;;;;;5007752;28;20188;-75
2022/06/30 05:15:18;;;;;;;3.20;2.60;;;21.90;99.90;;;;;;5003454;28;20228;-76
2022/06/30 05:17:45;;;;;;;3.20;2.63;;;22.00;99.90;;;;;;5006015;28;20227;-76
2022/06/30 05:20:12;;;;;;;3.10;2.90;;;22.10;99.90;;;;;;5000442;28;20278;-75
2022/06/30 05:22:40;;;;;;;2.60;2.40;;;22.40;99.90;;;;;;4998853;28;20232;-76
2022/06/30 05:27:53;;;;;;;5.55;2.90;;;22.70;99.90;;;;;;5003677;28;20226;-76
2022/06/30 05:30:20;;;;;;;4.75;3.40;;;22.70;99.90;;;;;;5005202;28;20220;-76
2022/06/30 05:32:47;;;;;;;3.38;2.92;;;22.60;99.90;;;;;;4998235;28;20689;-76
2022/06/30 05:35:15;;;;;;;3.20;2.90;;;22.60;99.90;;;;;;5002360;28;20647;-75
2022/06/30 05:37:43;;;;;;;4.25;3.45;;;22.60;99.90;;;;;;5001201;28;20216;-76
2022/06/30 05:40:11;;;;;;;3.83;3.53;;;22.60;99.90;;;;;;5003405;28;20223;-76
2022/06/30 05:42:38;;;;;;;3.60;3.30;;;22.60;99.90;;;;;;5002208;28;20220;-76
2022/06/30 05:45:06;;;;;;;3.75;3.25;;;22.60;99.90;;;;;;5001763;28;20220;-76
2022/06/30 05:47:33;;;;;;;3.55;3.20;;;22.70;99.90;;;;;;5002932;28;20559;-76
2022/06/30 05:50:00;;;;;;;6.25;3.30;;;22.80;99.90;;;;;;5002122;28;20216;-76
2022/06/30 05:52:27;;;;;;;4.70;4.07;;;22.90;99.90;;;;;;5004060;28;20197;-76
2022/06/30 05:54:57;;;;;;;5.75;3.30;;;23.00;99.90;;;;;;5001737;28;20235;-76
2022/06/30 05:57:24;;;;;;;6.13;4.15;;;23.00;99.90;;;;;;5005094;28;20217;-76
2022/06/30 05:59:51;;;;;;;4.03;3.55;;;23.00;99.90;;;;;;5006106;28;20227;-76
2022/06/30 06:02:18;;;;;;;4.97;4.18;;;23.00;99.90;;;;;;5001873;28;20213;-75
2022/06/30 06:04:45;;;;;;;4.25;3.72;;;23.00;99.90;;;;;;5001181;28;20220;-76
2022/06/30 06:07:12;;;;;;;4.20;3.80;;;23.00;99.90;;;;;;5006158;28;20200;-76
2022/06/30 06:09:39;;;;;;;6.05;3.92;;;23.10;99.90;;;;;;5002222;28;20216;-75
2022/06/30 06:12:08;;;;;;;4.70;4.13;;;23.20;99.90;;;;;;5001098;28;20204;-77
2022/06/30 06:14:35;;;;;;;5.82;3.65;;;23.30;99.90;;;;;;5002050;28;20219;-77
2022/06/30 06:17:02;;;;;;;5.72;4.05;;;23.30;99.90;;;;;;5002174;28;20690;-76
2022/06/30 06:19:30;;;;;;;4.43;4.03;;;23.40;99.90;;;;;;4997741;28;20224;-76
2022/06/30 06:21:57;;;;;;;4.90;3.50;;;23.40;99.90;;;;;;5001172;28;20215;-76
2022/06/30 06:24:24;;;;;;;5.97;3.88;;;23.40;99.90;;;;;;4999899;28;20649;-76
2022/06/30 06:26:51;;;;;;;4.28;3.75;;;23.50;99.90;;;;;;5002834;28;20192;-76
2022/06/30 06:29:20;;;;;;;4.65;3.95;;;23.50;99.90;;;;;;5003000;28;20235;-77
2022/06/30 06:31:47;;;;;;;3.97;3.50;;;23.50;99.90;;;;;;5002924;28;20220;-75
2022/06/30 06:34:15;;;;;;;4.00;3.60;;;23.60;99.90;;;;;;4986757;28;20234;-76
2022/06/30 06:36:42;;;;;;;5.18;3.85;;;23.70;99.90;;;;;;4991923;28;20656;-75
2022/06/30 06:39:09;;;;;;;5.30;3.50;;;23.70;99.90;;;;;;4989046;28;20723;-75
2022/06/30 06:41:36;;;;;;;4.13;3.72;;;23.80;99.90;;;;;;4995029;28;20201;-77
2022/06/30 06:44:03;;;;;;;4.70;3.78;;;23.90;99.90;;;;;;4994506;28;20229;-76
2022/06/30 06:46:32;;;;;;;3.85;3.45;;;24.00;99.90;;;;;;4995079;28;20633;-76
2022/06/30 06:49:01;;;;;;;6.55;3.83;;;24.00;99.90;;;;;;4994647;28;20770;-76
2022/06/30 06:51:28;;;;;;;6.15;4.05;;;24.10;99.90;;;;;;4991380;28;20205;-76
2022/06/30 06:53:56;;;;;;;6.70;3.45;;;24.10;99.90;;;;;;4992105;28;21023;-75
2022/06/30 06:56:24;;;;;;;4.32;3.92;;;24.20;99.90;;;;;;4998058;28;20208;-76
2022/06/30 06:58:51;;;;;;;4.28;3.80;;;24.20;99.90;;;;;;4997928;28;20232;-76
2022/06/30 07:01:18;;;;;;;5.40;4.03;;;24.30;99.90;;;;;;4995390;28;20204;-76
2022/06/30 07:03:47;;;;;;;5.10;4.00;;;24.40;99.90;;;;;;5001260;28;20239;-77
2022/06/30 07:06:14;;;;;;;5.95;3.72;;;24.50;99.90;;;;;;5002863;28;20655;-75
2022/06/30 07:08:41;;;;;;;5.13;4.30;;;24.60;99.90;;;;;;4997270;28;20543;-76
2022/06/30 07:11:09;;;;;;;4.13;3.75;;;24.70;99.90;;;;;;4997891;28;20673;-76
2022/06/30 07:13:36;;;;;;;7.47;3.80;;;24.70;99.90;;;;;;4995909;28;20206;-75
2022/06/30 07:16:04;;;;;;;7.93;3.92;;;24.70;99.90;;;;;;4999337;28;20200;-77
2022/06/30 07:18:31;;;;;;;5.70;3.97;;;24.80;99.90;;;;;;4997948;28;20742;-77
2022/06/30 07:21:00;;;;;;;3.83;3.22;;;25.00;99.90;;;;;;5000391;28;20196;-75
2022/06/30 07:23:27;;;;;;;4.85;3.78;;;25.10;99.90;;;;;;4997432;28;20220;-77
2022/06/30 07:25:54;;;;;;;4.63;3.25;;;25.20;99.90;;;;;;4996680;28;20198;-76
2022/06/30 07:28:21;;;;;;;4.47;4.03;;;25.20;99.90;;;;;;5037432;23;20219;-77
2022/06/30 07:30:48;;;;;;;4.80;4.13;;;25.30;99.90;;;;;;5058431;28;20187;-77
2022/06/30 07:33:17;;;;;;;6.00;3.75;;;25.40;99.90;;;;;;5046352;28;20206;-77
2022/06/30 07:35:44;;;;;;;5.35;3.67;;;25.40;99.90;;;;;;5054894;28;20769;-77
2022/06/30 07:38:13;;;;;;;4.07;3.40;;;25.50;99.90;;;;;;5043803;28;20278;-76
2022/06/30 07:40:40;;;;;;;5.38;4.30;;;25.70;99.90;;;;;;5051252;28;20586;-76
2022/06/30 07:43:08;;;;;;;5.43;3.85;;;25.80;99.90;;;;;;5036293;28;20230;-76
2022/06/30 07:45:35;;;;;;;5.53;4.07;;;26.00;99.90;;;;;;5035440;28;20233;-77
2022/06/30 07:48:02;;;;;;;4.18;3.78;;;26.10;99.90;;;;;;5035882;28;20211;-77
2022/06/30 07:50:31;;;;;;;5.35;3.83;;;26.10;99.90;;;;;;5043704;28;20310;-77
2022/06/30 07:52:59;;;;;;;4.13;3.58;;;26.10;99.90;;;;;;5048073;28;20202;-76
2022/06/30 07:55:27;;;;;;;5.32;3.70;;;26.20;99.90;;;;;;5047113;28;20243;-77
2022/06/30 07:57:55;;;;;;;4.80;3.67;;;26.30;99.90;;;;;;5036201;28;20196;-76
2022/06/30 08:00:24;;;;;;;5.47;3.65;;;26.60;99.90;;;;;;5042796;28;20223;-77
2022/06/30 08:02:52;;;;;;;4.10;3.70;;;26.90;99.90;;;;;;5048801;28;20247;-76
2022/06/30 08:05:19;;;;;;;3.92;3.47;;;27.00;99.90;;;;;;5029749;28;20273;-75
2022/06/30 08:07:46;;;;;;;4.10;3.80;;;27.10;99.90;;;;;;5048835;28;20191;-76
2022/06/30 08:10:14;;;;;;;4.38;3.70;;;27.10;99.90;;;;;;5038190;28;20259;-77
2022/06/30 08:12:42;;;;;;;4.40;3.30;;;27.10;99.90;;;;;;5036157;28;20206;-75
2022/06/30 08:15:10;;;;;;;3.78;3.25;;;27.00;99.90;;;;;;5034949;28;20261;-75
2022/06/30 08:17:40;;;;;;;4.53;4.13;;;27.00;99.90;;;;;;5036544;28;20331;-76
2022/06/30 08:36:27;;;;;;;5.22;3.67;;;27.50;99.90;;;;;;5013521;28;20211;-76
2022/06/30 08:38:55;;;;;;;5.35;3.85;;;27.60;99.90;;;;;;5035763;28;20397;-76
2022/06/30 08:44:07;;;;;;;3.90;3.60;;;27.80;99.90;;;;;;5042004;28;20239;-76
2022/06/30 08:46:37;;;;;;;4.53;4.13;;;28.00;99.90;;;;;;5036032;28;20198;-75
2022/06/30 08:49:04;;;;;;;4.80;3.85;;;28.00;99.90;;;;;;5031499;28;20251;-75
2022/06/30 08:51:35;;;;;;;7.22;4.60;;;27.90;99.90;;;;;;5026331;28;20671;-75
2022/06/30 08:54:04;;;;;;;4.93;3.97;;;27.90;99.90;;;;;;5031075;28;20235;-75
2022/06/30 08:56:34;;;;;;;5.72;4.22;;;27.90;99.90;;;;;;5036472;28;20635;-76
2022/06/30 08:59:03;;;;;;;6.20;4.32;;;28.20;99.90;;;;;;5033961;28;20315;-75
2022/06/30 09:01:31;;;;;;;4.40;3.90;;;28.30;99.90;;;;;;5035573;28;20192;-76
2022/06/30 09:03:58;;;;;;;5.53;3.42;;;28.40;99.90;;;;;;5029647;28;20224;-77
2022/06/30 09:06:26;;;;;;;7.78;3.97;;;28.30;99.90;;;;;;5037023;28;20226;-75
2022/06/30 09:08:57;;;;;;;6.07;3.83;;;28.40;99.90;;;;;;5051581;28;20698;-76
2022/06/30 09:11:50;;;;;;;4.93;4.18;;;28.40;99.90;;;;;;5053352;28;20187;-76
2022/06/30 09:14:42;;;;;;;4.10;3.70;;;28.50;99.90;;;;;;5042629;28;20223;-75
2022/06/30 09:17:13;;;;;;;4.68;3.63;;;28.50;99.90;;;;;;5034959;28;20701;-76
2022/06/30 09:20:01;;;;;;;5.80;3.72;;;28.30;99.90;;;;;;5034440;28;20601;-76
2022/06/30 09:22:30;;;;;;;5.05;3.80;;;28.30;99.90;;;;;;5030965;28;20199;-76
2022/06/30 09:25:00;;;;;;;5.70;3.60;;;28.30;99.90;;;;;;5033510;28;20676;-75
2022/06/30 09:27:30;;;;;;;5.10;3.95;;;28.50;99.90;;;;;;5035118;28;20203;-75
2022/06/30 09:30:09;;;;;;;5.35;3.72;;;28.70;99.90;;;;;;5013945;28;20243;-76
2022/06/30 09:32:50;;;;;;;4.35;3.95;;;28.90;99.90;;;;;;5015472;28;20729;-75
2022/06/30 09:35:19;;;;;;;4.13;3.67;;;29.00;99.90;;;;;;5027102;28;20310;-76
2022/06/30 09:37:46;;;;;;;5.57;3.65;;;29.20;99.90;;;;;;5032997;28;20204;-75
2022/06/30 09:40:15;;;;;;;6.57;3.60;;;29.40;99.90;;;;;;5042231;28;20231;-75
2022/06/30 09:42:45;;;;;;;4.60;3.67;;;29.40;99.90;;;;;;5035863;28;20211;-75
2022/06/30 09:45:16;;;;;;;4.85;3.72;;;29.40;99.90;;;;;;5033871;28;20231;-76
2022/06/30 09:47:54;;;;;;;6.07;3.95;;;29.40;99.90;;;;;;5034954;28;20188;-75
2022/06/30 09:50:21;;;;;;;4.93;3.90;;;29.40;99.90;;;;;;5033596;28;20229;-75
2022/06/30 09:53:08;;;;;;;4.18;3.63;;;29.40;99.90;;;;;;5034448;28;20218;-75
2022/06/30 09:55:49;;;;;;;4.40;3.50;;;29.40;99.90;;;;;;5033197;28;20629;-76
2022/06/30 10:04:00;;;;;;;6.22;4.13;;;29.30;99.90;;;;;;5775476;22;20227;-85
2022/06/30 10:06:27;;;;;;;7.25;3.78;;;29.50;99.90;;;;;;4998011;28;20219;-87
2022/06/30 10:08:55;;;;;;;4.47;3.97;;;29.50;99.90;;;;;;4997120;28;20315;-87
2022/06/30 10:11:24;;;;;;;5.18;3.80;;;29.50;99.90;;;;;;5014644;28;20230;-87
2022/06/30 10:13:52;;;;;;;4.43;4.03;;;29.70;99.90;;;;;;5012763;28;20823;-86
2022/06/30 10:16:21;;;;;;;5.88;4.15;;;29.80;99.90;;;;;;5004262;28;20223;-88
2022/06/30 10:18:50;;;;;;;4.93;3.85;;;29.60;99.90;;;;;;4995438;28;20252;-89
2022/06/30 10:21:18;;;;;;;7.80;4.10;;;29.70;99.90;;;;;;4991573;28;20219;-88
2022/06/30 10:23:45;;;;;;;6.10;4.40;;;29.90;99.90;;;;;;4993331;28;20605;-89
2022/06/30 10:27:12;;;;;;;3.78;3.40;;;29.80;99.90;;;;;;4999828;28;20581;-87
2022/06/30 10:29:01;;;;;;;6.85;3.97;;;29.70;99.90;;;;;;4993925;28;20223;-88
2022/06/30 10:31:34;;;;;;;5.40;4.10;;;29.70;99.90;;;;;;4996267;28;20593;-89
2022/06/30 10:34:08;;;;;;;5.20;4.18;;;29.70;99.90;;;;;;4996370;28;20335;-88
2022/06/30 10:36:44;;;;;;;6.65;4.28;;;29.70;99.90;;;;;;4998142;28;20236;-88
2022/06/30 10:39:19;;;;;;;5.88;3.67;;;29.80;99.90;;;;;;4993586;28;20585;-87
2022/06/30 10:41:48;;;;;;;8.68;4.55;;;29.70;99.90;;;;;;4998902;28;20226;-86
2022/06/30 10:44:22;;;;;;;6.78;4.53;;;30.00;99.90;;;;;;4995970;28;20239;-88
2022/06/30 10:47:10;;;;;;;5.20;4.55;;;30.00;99.90;;;;;;4997407;28;20204;-84
2022/06/30 10:49:57;;;;;;;4.45;3.85;;;30.00;99.90;;;;;;4989843;28;20224;-85
2022/06/30 10:52:26;;;;;;;6.65;4.35;;;30.10;99.90;;;;;;4995346;28;20975;-89
2022/06/30 10:55:07;;;;;;;7.20;4.32;;;30.30;99.90;;;;;;4997313;28;20216;-87
2022/06/30 10:58:01;;;;;;;5.22;3.53;;;30.40;99.90;;;;;;4995570;28;20196;-85
2022/06/30 11:00:59;;;;;;;5.78;3.88;;;30.60;99.90;;;;;;4993859;28;20224;-87
2022/06/30 11:04:01;;;;;;;6.72;3.95;;;30.80;99.90;;;;;;4987067;28;20200;-87
2022/06/30 11:07:07;;;;;;;8.60;4.18;;;31.10;99.90;;;;;;4993983;28;20196;-85
2022/06/30 11:10:20;;;;;;;8.63;4.25;;;31.30;99.90;;;;;;4990090;28;20224;-87
2022/06/30 11:13:07;;;;;;;6.78;3.83;;;31.40;99.90;;;;;;4992805;28;20602;-89
2022/06/30 11:15:55;;;;;;;5.90;3.65;;;31.40;99.90;;;;;;4976818;28;20221;-87
2022/06/30 11:18:25;;;;;;;6.63;3.47;;;31.40;99.90;;;;;;4973193;28;20205;-88
2022/06/30 11:20:53;;;;;;;5.85;3.30;;;31.60;99.90;;;;;;4984383;28;20668;-88
2022/06/30 11:23:21;;;;;;;6.60;3.55;;;31.70;99.90;;;;;;4976747;28;20202;-87
2022/06/30 11:28:40;;;;;;;8.57;3.85;;;31.80;99.90;;;;;;4997350;28;20208;-87
2022/06/30 11:31:26;;;;;;;5.25;3.65;;;32.00;99.90;;;;;;4996060;28;20205;-87
2022/06/30 11:33:57;;;;;;;10.05;4.00;;;32.00;99.90;;;;;;4986844;28;20251;-87
2022/06/30 11:36:24;;;;;;;8.07;3.90;;;32.10;99.90;;;;;;4996947;28;21063;-87
2022/06/30 11:38:56;;;;;;;7.82;4.00;;;32.00;99.90;;;;;;4994369;28;20310;-86
2022/06/30 11:44:09;;;;;;;6.20;3.97;;;32.20;99.90;;;;;;4991297;28;20231;-85
2022/06/30 11:46:48;;;;;;;7.70;3.80;;;32.20;99.90;;;;;;4993660;28;20220;-86
2022/06/30 11:49:17;;;;;;;9.32;3.92;;;32.10;99.90;;;;;;4994935;28;20224;-86
2022/06/30 11:51:45;;;;;;;8.10;3.92;;;32.40;99.90;;;;;;5000201;28;20208;-88
2022/06/30 11:54:13;;;;;;;6.90;3.88;;;32.50;99.90;;;;;;4994308;28;20221;-87
2022/06/30 11:56:45;;;;;;;8.90;3.83;;;32.50;99.90;;;;;;5005118;28;20204;-88
2022/06/30 11:59:12;;;;;;;6.07;3.40;;;32.30;99.90;;;;;;4991376;28;20331;-87
2022/06/30 12:01:39;;;;;;;6.50;3.50;;;32.20;99.90;;;;;;4982129;28;20201;-88
2022/06/30 12:04:18;;;;;;;6.40;3.63;;;32.20;99.90;;;;;;4979186;28;20233;-88
2022/06/30 12:06:46;;;;;;;9.38;4.07;;;32.30;99.90;;;;;;4981445;28;20563;-88
2022/06/30 12:09:13;;;;;;;9.38;3.25;;;32.20;99.90;;;;;;4975933;28;20230;-89
2022/06/30 12:11:40;;;;;;;6.38;3.50;;;32.30;99.90;;;;;;4979115;28;20201;-86
2022/06/30 12:14:08;;;;;;;7.20;3.50;;;32.40;99.90;;;;;;4986691;28;21050;-84
2022/06/30 12:16:35;;;;;;;7.10;3.65;;;32.60;99.90;;;;;;5004381;28;20600;-83
2022/06/30 12:19:02;;;;;;;9.38;3.75;;;32.70;99.90;;;;;;5004622;28;20254;-84
2022/06/30 12:21:32;;;;;;;10.70;3.50;;;32.70;99.90;;;;;;4997368;28;20860;-84
2022/06/30 12:24:00;;;;;;;6.25;3.22;;;32.70;99.90;;;;;;4990085;28;20726;-85
2022/06/30 12:26:27;;;;;;;5.75;3.45;;;32.80;99.90;;;;;;4976129;28;20661;-85
2022/06/30 12:28:55;;;;;;;8.13;3.90;;;32.80;99.90;;;;;;4974900;28;20224;-86
2022/06/30 12:31:27;;;;;;;6.57;3.53;;;32.70;99.90;;;;;;4972578;28;20211;-86
2022/06/30 12:33:55;;;;;;;8.00;3.40;;;32.60;99.90;;;;;;4971640;28;20220;-83
2022/06/30 12:36:23;;;;;;;8.65;3.50;;;32.50;99.90;;;;;;4973816;28;20197;-83
2022/06/30 12:38:51;;;;;;;8.18;3.95;;;32.40;99.90;;;;;;4977720;28;20699;-84
2022/06/30 12:41:19;;;;;;;7.85;4.20;;;32.30;99.90;;;;;;4976133;28;20255;-84
2022/06/30 12:43:49;;;;;;;7.65;3.85;;;32.50;99.90;;;;;;4975446;28;20233;-84
2022/06/30 12:46:17;;;;;;;5.82;3.50;;;32.40;99.90;;;;;;4976872;28;20744;-84
2022/06/30 12:48:48;;;;;;;7.38;3.50;;;32.40;99.90;;;;;;4972860;28;20589;-84
2022/06/30 12:51:18;;;;;;;5.13;3.20;;;32.60;99.90;;;;;;4976475;28;20204;-83
2022/06/30 12:53:46;;;;;;;7.82;3.67;;;32.80;99.90;;;;;;4972190;28;20842;-84
2022/06/30 12:56:20;;;;;;;9.52;3.88;;;32.90;99.90;;;;;;4975962;28;20727;-84
2022/06/30 12:58:53;;;;;;;10.43;3.63;;;32.90;99.90;;;;;;4971537;28;20233;-84
2022/06/30 13:01:23;;;;;;;9.07;3.67;;;32.80;99.90;;;;;;4975672;28;20255;-84
2022/06/30 13:03:52;;;;;;;9.77;4.25;;;32.60;99.90;;;;;;4975111;28;20360;-84
2022/06/30 13:06:20;;;;;;;8.75;4.10;;;32.60;99.90;;;;;;4972992;28;20228;-84
2022/06/30 13:08:48;;;;;;;8.93;3.92;;;32.60;99.90;;;;;;4970279;28;20229;-85
2022/06/30 13:11:18;;;;;;;8.00;3.83;;;32.50;99.90;;;;;;4976976;28;20202;-85
2022/06/30 13:13:47;;;;;;;5.80;3.50;;;32.50;99.90;;;;;;4975088;28;20231;-86
2022/06/30 13:16:16;;;;;;;6.82;3.78;;;32.50;99.90;;;;;;4974568;28;20201;-86
2022/06/30 13:18:43;;;;;;;6.18;3.72;;;32.50;99.90;;;;;;4975461;28;20735;-87
2022/06/30 13:21:10;;;;;;;10.00;3.95;;;32.50;99.90;;;;;;4975306;28;20208;-85
2022/06/30 13:23:38;;;;;;;7.47;3.58;;;32.50;99.90;;;;;;4971773;28;20221;-86
2022/06/30 13:26:05;;;;;;;6.55;3.60;;;32.60;99.90;;;;;;4973925;28;20309;-85
2022/06/30 13:28:34;;;;;;;8.90;4.03;;;32.60;99.90;;;;;;4969034;28;20209;-84
2022/06/30 13:31:01;;;;;;;12.32;4.10;;;32.60;99.90;;;;;;4973719;28;20271;-84
2022/06/30 13:33:31;;;;;;;6.60;4.20;;;32.60;99.90;;;;;;4974265;28;20209;-84
2022/06/30 13:35:58;;;;;;;8.68;4.10;;;32.50;99.90;;;;;;4974451;28;20691;-84
2022/06/30 13:38:25;;;;;;;9.27;4.78;;;32.50;99.90;;;;;;4977042;28;20197;-84